sensor_id;sensor_type;location;lat;lon;timestamp;temperature;humidity
44607;DHT22;30315;46.072;14.474;2022-07-11T00:01:48;21.60;62.80
44607;DHT22;30315;46.072;14.474;2022-07-11T00:04:16;21.60;62.80
44607;DHT22;30315;46.072;14.474;2022-07-11T00:06:43;21.70;63.10
44607;DHT22;30315;46.072;14.474;2022-07-11T00:09:10;21.70;62.60
44607;DHT22;30315;46.072;14.474;2022-07-11T00:11:37;21.60;61.20
44607;DHT22;30315;46.072;14.474;2022-07-11T00:14:05;21.60;61.30
44607;DHT22;30315;46.072;14.474;2022-07-11T00:16:32;21.60;61.40
44607;DHT22;30315;46.072;14.474;2022-07-11T00:18:59;21.60;61.70
44607;DHT22;30315;46.072;14.474;2022-07-11T00:21:26;21.60;61.80
44607;DHT22;30315;46.072;14.474;2022-07-11T00:23:53;21.60;61.00
44607;DHT22;30315;46.072;14.474;2022-07-11T00:26:20;21.60;61.00
44607;DHT22;30315;46.072;14.474;2022-07-11T00:28:47;21.60;60.90
44607;DHT22;30315;46.072;14.474;2022-07-11T00:31:14;21.70;60.60
44607;DHT22;30315;46.072;14.474;2022-07-11T00:33:41;21.70;60.00
44607;DHT22;30315;46.072;14.474;2022-07-11T00:36:08;21.60;59.20
44607;DHT22;30315;46.072;14.474;2022-07-11T00:38:35;21.70;58.80
44607;DHT22;30315;46.072;14.474;2022-07-11T00:41:02;21.60;58.70
44607;DHT22;30315;46.072;14.474;2022-07-11T00:43:31;21.70;58.50
44607;DHT22;30315;46.072;14.474;2022-07-11T00:45:58;21.70;58.40
44607;DHT22;30315;46.072;14.474;2022-07-11T00:48:26;21.60;58.20
44607;DHT22;30315;46.072;14.474;2022-07-11T00:50:54;21.60;58.40
44607;DHT22;30315;46.072;14.474;2022-07-11T00:53:21;21.60;58.50
44607;DHT22;30315;46.072;14.474;2022-07-11T00:55:51;21.60;58.60
44607;DHT22;30315;46.072;14.474;2022-07-11T00:58:22;21.60;58.80
44607;DHT22;30315;46.072;14.474;2022-07-11T01:00:50;21.60;58.80
44607;DHT22;30315;46.072;14.474;2022-07-11T01:03:17;21.60;58.80
44607;DHT22;30315;46.072;14.474;2022-07-11T01:05:44;21.60;58.80
44607;DHT22;30315;46.072;14.474;2022-07-11T01:08:11;21.60;58.80
44607;DHT22;30315;46.072;14.474;2022-07-11T01:10:38;21.60;58.90
44607;DHT22;30315;46.072;14.474;2022-07-11T01:13:05;21.60;58.80
44607;DHT22;30315;46.072;14.474;2022-07-11T01:15:35;21.60;58.60
44607;DHT22;30315;46.072;14.474;2022-07-11T01:18:03;21.60;58.60
44607;DHT22;30315;46.072;14.474;2022-07-11T01:20:30;21.60;58.70
44607;DHT22;30315;46.072;14.474;2022-07-11T01:23:05;21.60;58.80
44607;DHT22;30315;46.072;14.474;2022-07-11T01:25:32;21.60;58.80
44607;DHT22;30315;46.072;14.474;2022-07-11T01:28:03;21.60;58.90
44607;DHT22;30315;46.072;14.474;2022-07-11T01:30:31;21.50;58.60
44607;DHT22;30315;46.072;14.474;2022-07-11T01:32:58;21.50;58.80
44607;DHT22;30315;46.072;14.474;2022-07-11T01:35:27;21.50;58.20
44607;DHT22;30315;46.072;14.474;2022-07-11T01:37:54;21.50;58.50
44607;DHT22;30315;46.072;14.474;2022-07-11T01:40:29;21.40;58.60
44607;DHT22;30315;46.072;14.474;2022-07-11T01:42:56;21.40;58.30
44607;DHT22;30315;46.072;14.474;2022-07-11T01:45:22;21.40;57.40
44607;DHT22;30315;46.072;14.474;2022-07-11T01:47:49;21.40;57.50
44607;DHT22;30315;46.072;14.474;2022-07-11T01:50:16;21.40;58.00
44607;DHT22;30315;46.072;14.474;2022-07-11T01:52:43;21.40;57.40
44607;DHT22;30315;46.072;14.474;2022-07-11T01:55:10;21.30;57.60
44607;DHT22;30315;46.072;14.474;2022-07-11T01:57:39;21.30;57.40
44607;DHT22;30315;46.072;14.474;2022-07-11T02:00:07;21.30;57.50
44607;DHT22;30315;46.072;14.474;2022-07-11T02:02:37;21.30;57.00
44607;DHT22;30315;46.072;14.474;2022-07-11T02:05:05;21.30;57.20
44607;DHT22;30315;46.072;14.474;2022-07-11T02:07:32;21.20;57.40
44607;DHT22;30315;46.072;14.474;2022-07-11T02:13:16;21.30;57.60
44607;DHT22;30315;46.072;14.474;2022-07-11T02:15:44;21.20;57.70
44607;DHT22;30315;46.072;14.474;2022-07-11T02:18:12;21.20;57.30
44607;DHT22;30315;46.072;14.474;2022-07-11T02:20:41;21.20;57.60
44607;DHT22;30315;46.072;14.474;2022-07-11T02:23:09;21.10;57.30
44607;DHT22;30315;46.072;14.474;2022-07-11T02:25:36;21.10;57.60
44607;DHT22;30315;46.072;14.474;2022-07-11T02:28:06;21.10;57.70
44607;DHT22;30315;46.072;14.474;2022-07-11T02:30:40;21.10;58.10
44607;DHT22;30315;46.072;14.474;2022-07-11T02:33:07;21.00;58.20
44607;DHT22;30315;46.072;14.474;2022-07-11T02:35:35;21.00;58.00
44607;DHT22;30315;46.072;14.474;2022-07-11T02:38:04;21.00;57.90
44607;DHT22;30315;46.072;14.474;2022-07-11T02:40:32;20.90;57.50
44607;DHT22;30315;46.072;14.474;2022-07-11T02:42:58;20.90;57.40
44607;DHT22;30315;46.072;14.474;2022-07-11T02:45:25;20.90;57.80
44607;DHT22;30315;46.072;14.474;2022-07-11T02:47:52;20.90;57.70
44607;DHT22;30315;46.072;14.474;2022-07-11T02:50:19;20.80;57.70
44607;DHT22;30315;46.072;14.474;2022-07-11T02:52:46;20.90;58.20
44607;DHT22;30315;46.072;14.474;2022-07-11T02:55:13;20.90;58.20
44607;DHT22;30315;46.072;14.474;2022-07-11T02:57:42;20.80;57.90
44607;DHT22;30315;46.072;14.474;2022-07-11T03:00:14;20.80;57.60
44607;DHT22;30315;46.072;14.474;2022-07-11T03:02:42;20.70;57.90
44607;DHT22;30315;46.072;14.474;2022-07-11T03:05:09;20.70;57.70
44607;DHT22;30315;46.072;14.474;2022-07-11T03:07:37;20.70;57.60
44607;DHT22;30315;46.072;14.474;2022-07-11T03:10:04;20.70;58.00
44607;DHT22;30315;46.072;14.474;2022-07-11T03:12:32;20.70;58.20
44607;DHT22;30315;46.072;14.474;2022-07-11T03:14:59;20.60;58.10
44607;DHT22;30315;46.072;14.474;2022-07-11T03:17:26;20.60;58.00
44607;DHT22;30315;46.072;14.474;2022-07-11T03:19:53;20.60;58.10
44607;DHT22;30315;46.072;14.474;2022-07-11T03:22:19;20.60;58.30
44607;DHT22;30315;46.072;14.474;2022-07-11T03:24:46;20.60;58.40
44607;DHT22;30315;46.072;14.474;2022-07-11T03:27:13;20.50;58.70
44607;DHT22;30315;46.072;14.474;2022-07-11T03:29:40;20.50;58.70
44607;DHT22;30315;46.072;14.474;2022-07-11T03:32:08;20.50;58.80
44607;DHT22;30315;46.072;14.474;2022-07-11T03:34:36;20.50;59.80
44607;DHT22;30315;46.072;14.474;2022-07-11T03:37:03;20.40;59.60
44607;DHT22;30315;46.072;14.474;2022-07-11T03:39:31;20.50;59.70
44607;DHT22;30315;46.072;14.474;2022-07-11T03:41:58;20.40;59.90
44607;DHT22;30315;46.072;14.474;2022-07-11T03:44:25;20.30;60.40
44607;DHT22;30315;46.072;14.474;2022-07-11T03:46:52;20.30;60.70
44607;DHT22;30315;46.072;14.474;2022-07-11T03:49:19;20.30;60.50
44607;DHT22;30315;46.072;14.474;2022-07-11T03:51:46;20.20;60.50
44607;DHT22;30315;46.072;14.474;2022-07-11T03:54:13;20.20;61.20
44607;DHT22;30315;46.072;14.474;2022-07-11T03:56:40;20.20;62.40
44607;DHT22;30315;46.072;14.474;2022-07-11T03:59:07;20.10;62.50
44607;DHT22;30315;46.072;14.474;2022-07-11T04:01:36;20.00;62.80
44607;DHT22;30315;46.072;14.474;2022-07-11T04:04:03;20.00;63.30
44607;DHT22;30315;46.072;14.474;2022-07-11T04:06:30;20.00;63.50
44607;DHT22;30315;46.072;14.474;2022-07-11T04:08:57;19.90;63.40
44607;DHT22;30315;46.072;14.474;2022-07-11T04:11:24;19.90;63.70
44607;DHT22;30315;46.072;14.474;2022-07-11T04:13:51;19.90;63.70
44607;DHT22;30315;46.072;14.474;2022-07-11T04:16:18;19.90;63.80
44607;DHT22;30315;46.072;14.474;2022-07-11T04:18:46;19.80;63.90
44607;DHT22;30315;46.072;14.474;2022-07-11T04:21:12;19.80;63.90
44607;DHT22;30315;46.072;14.474;2022-07-11T04:23:39;19.80;63.80
44607;DHT22;30315;46.072;14.474;2022-07-11T04:26:07;19.80;63.80
44607;DHT22;30315;46.072;14.474;2022-07-11T04:28:34;19.70;63.90
44607;DHT22;30315;46.072;14.474;2022-07-11T04:31:01;19.70;64.00
44607;DHT22;30315;46.072;14.474;2022-07-11T04:33:28;19.70;64.10
44607;DHT22;30315;46.072;14.474;2022-07-11T04:35:55;19.70;64.00
44607;DHT22;30315;46.072;14.474;2022-07-11T04:38:22;19.70;64.30
44607;DHT22;30315;46.072;14.474;2022-07-11T04:40:50;19.70;64.00
44607;DHT22;30315;46.072;14.474;2022-07-11T04:43:17;19.70;63.60
44607;DHT22;30315;46.072;14.474;2022-07-11T04:45:44;19.70;63.60
44607;DHT22;30315;46.072;14.474;2022-07-11T04:48:11;19.70;63.40
44607;DHT22;30315;46.072;14.474;2022-07-11T04:50:38;19.70;63.30
44607;DHT22;30315;46.072;14.474;2022-07-11T04:53:08;19.80;63.10
44607;DHT22;30315;46.072;14.474;2022-07-11T04:55:35;19.90;63.50
44607;DHT22;30315;46.072;14.474;2022-07-11T04:58:05;20.00;63.60
44607;DHT22;30315;46.072;14.474;2022-07-11T05:00:32;20.00;63.60
44607;DHT22;30315;46.072;14.474;2022-07-11T05:03:07;20.00;63.50
44607;DHT22;30315;46.072;14.474;2022-07-11T05:05:34;20.10;63.20
44607;DHT22;30315;46.072;14.474;2022-07-11T05:08:01;20.10;63.30
44607;DHT22;30315;46.072;14.474;2022-07-11T05:10:28;20.10;63.30
44607;DHT22;30315;46.072;14.474;2022-07-11T05:12:57;20.20;63.60
44607;DHT22;30315;46.072;14.474;2022-07-11T05:15:24;20.20;61.70
44607;DHT22;30315;46.072;14.474;2022-07-11T05:17:51;20.30;60.30
44607;DHT22;30315;46.072;14.474;2022-07-11T05:20:18;20.30;60.00
44607;DHT22;30315;46.072;14.474;2022-07-11T05:22:45;20.30;60.20
44607;DHT22;30315;46.072;14.474;2022-07-11T05:25:13;20.40;60.50
44607;DHT22;30315;46.072;14.474;2022-07-11T05:27:40;20.40;60.40
44607;DHT22;30315;46.072;14.474;2022-07-11T05:30:07;20.40;60.30
44607;DHT22;30315;46.072;14.474;2022-07-11T05:32:35;20.50;60.50
44607;DHT22;30315;46.072;14.474;2022-07-11T05:35:03;20.60;60.50
44607;DHT22;30315;46.072;14.474;2022-07-11T05:37:31;20.60;59.90
44607;DHT22;30315;46.072;14.474;2022-07-11T05:39:58;20.60;59.60
44607;DHT22;30315;46.072;14.474;2022-07-11T05:42:32;20.60;59.20
44607;DHT22;30315;46.072;14.474;2022-07-11T05:44:59;20.70;59.30
44607;DHT22;30315;46.072;14.474;2022-07-11T05:47:26;20.70;59.80
44607;DHT22;30315;46.072;14.474;2022-07-11T05:49:52;20.70;58.90
44607;DHT22;30315;46.072;14.474;2022-07-11T05:52:19;20.70;57.50
44607;DHT22;30315;46.072;14.474;2022-07-11T05:54:46;20.70;56.80
44607;DHT22;30315;46.072;14.474;2022-07-11T05:57:13;20.80;56.90
44607;DHT22;30315;46.072;14.474;2022-07-11T05:59:40;20.80;56.90
44607;DHT22;30315;46.072;14.474;2022-07-11T06:02:07;20.90;56.00
44607;DHT22;30315;46.072;14.474;2022-07-11T06:04:35;20.90;56.00
44607;DHT22;30315;46.072;14.474;2022-07-11T06:07:04;20.90;55.40
44607;DHT22;30315;46.072;14.474;2022-07-11T06:09:31;20.90;54.80
44607;DHT22;30315;46.072;14.474;2022-07-11T06:11:58;21.00;54.30
44607;DHT22;30315;46.072;14.474;2022-07-11T06:14:25;21.00;54.90
44607;DHT22;30315;46.072;14.474;2022-07-11T06:16:52;21.00;54.70
44607;DHT22;30315;46.072;14.474;2022-07-11T06:19:20;21.00;54.60
44607;DHT22;30315;46.072;14.474;2022-07-11T06:21:48;21.00;53.70
44607;DHT22;30315;46.072;14.474;2022-07-11T06:24:15;21.00;53.90
44607;DHT22;30315;46.072;14.474;2022-07-11T06:26:42;21.00;53.50
44607;DHT22;30315;46.072;14.474;2022-07-11T06:29:09;21.10;53.60
44607;DHT22;30315;46.072;14.474;2022-07-11T06:31:35;21.10;53.10
44607;DHT22;30315;46.072;14.474;2022-07-11T06:34:03;21.10;53.20
44607;DHT22;30315;46.072;14.474;2022-07-11T06:36:29;21.10;53.40
44607;DHT22;30315;46.072;14.474;2022-07-11T06:38:56;21.10;53.40
44607;DHT22;30315;46.072;14.474;2022-07-11T06:41:23;21.10;53.00
44607;DHT22;30315;46.072;14.474;2022-07-11T06:43:50;21.20;52.80
44607;DHT22;30315;46.072;14.474;2022-07-11T06:46:18;21.20;52.60
44607;DHT22;30315;46.072;14.474;2022-07-11T06:48:45;21.30;52.10
44607;DHT22;30315;46.072;14.474;2022-07-11T06:51:12;21.30;51.80
44607;DHT22;30315;46.072;14.474;2022-07-11T06:53:39;21.30;52.20
44607;DHT22;30315;46.072;14.474;2022-07-11T06:56:07;21.30;52.30
44607;DHT22;30315;46.072;14.474;2022-07-11T06:58:34;21.30;52.00
44607;DHT22;30315;46.072;14.474;2022-07-11T07:01:03;21.30;52.40
44607;DHT22;30315;46.072;14.474;2022-07-11T07:03:31;21.40;52.40
44607;DHT22;30315;46.072;14.474;2022-07-11T07:06:00;21.40;52.10
44607;DHT22;30315;46.072;14.474;2022-07-11T07:08:28;21.40;52.10
44607;DHT22;30315;46.072;14.474;2022-07-11T07:10:56;21.40;52.50
44607;DHT22;30315;46.072;14.474;2022-07-11T07:13:23;21.50;52.60
44607;DHT22;30315;46.072;14.474;2022-07-11T07:15:52;21.50;52.20
44607;DHT22;30315;46.072;14.474;2022-07-11T07:18:20;21.50;52.40
44607;DHT22;30315;46.072;14.474;2022-07-11T07:20:47;21.50;51.90
44607;DHT22;30315;46.072;14.474;2022-07-11T07:23:14;21.60;51.60
44607;DHT22;30315;46.072;14.474;2022-07-11T07:25:41;21.60;51.10
44607;DHT22;30315;46.072;14.474;2022-07-11T07:28:08;21.70;51.10
44607;DHT22;30315;46.072;14.474;2022-07-11T07:30:35;21.70;51.20
44607;DHT22;30315;46.072;14.474;2022-07-11T07:33:02;21.70;51.30
44607;DHT22;30315;46.072;14.474;2022-07-11T07:35:29;21.80;51.30
44607;DHT22;30315;46.072;14.474;2022-07-11T07:37:56;21.80;51.20
44607;DHT22;30315;46.072;14.474;2022-07-11T07:40:23;21.90;50.50
44607;DHT22;30315;46.072;14.474;2022-07-11T07:42:50;21.90;50.70
44607;DHT22;30315;46.072;14.474;2022-07-11T07:45:17;21.90;50.80
44607;DHT22;30315;46.072;14.474;2022-07-11T07:47:44;22.00;50.70
44607;DHT22;30315;46.072;14.474;2022-07-11T07:50:11;21.90;51.10
44607;DHT22;30315;46.072;14.474;2022-07-11T07:52:38;22.00;50.90
44607;DHT22;30315;46.072;14.474;2022-07-11T07:55:06;22.10;50.80
44607;DHT22;30315;46.072;14.474;2022-07-11T07:57:33;22.10;50.70
44607;DHT22;30315;46.072;14.474;2022-07-11T08:00:05;22.10;50.30
44607;DHT22;30315;46.072;14.474;2022-07-11T08:02:50;22.10;50.10
44607;DHT22;30315;46.072;14.474;2022-07-11T08:05:18;22.20;49.70
44607;DHT22;30315;46.072;14.474;2022-07-11T08:07:46;22.10;49.70
44607;DHT22;30315;46.072;14.474;2022-07-11T08:10:13;22.10;49.80
44607;DHT22;30315;46.072;14.474;2022-07-11T08:12:41;22.20;49.60
44607;DHT22;30315;46.072;14.474;2022-07-11T08:15:09;22.20;49.60
44607;DHT22;30315;46.072;14.474;2022-07-11T08:17:37;22.30;49.70
44607;DHT22;30315;46.072;14.474;2022-07-11T08:20:04;22.30;49.60
44607;DHT22;30315;46.072;14.474;2022-07-11T08:22:31;22.20;49.10
44607;DHT22;30315;46.072;14.474;2022-07-11T08:24:59;22.30;49.40
44607;DHT22;30315;46.072;14.474;2022-07-11T08:27:26;22.40;49.70
44607;DHT22;30315;46.072;14.474;2022-07-11T08:30:29;22.40;49.70
44607;DHT22;30315;46.072;14.474;2022-07-11T08:32:55;22.40;49.30
44607;DHT22;30315;46.072;14.474;2022-07-11T08:35:23;22.50;49.30
44607;DHT22;30315;46.072;14.474;2022-07-11T08:37:50;22.50;48.60
44607;DHT22;30315;46.072;14.474;2022-07-11T08:40:17;22.50;49.00
44607;DHT22;30315;46.072;14.474;2022-07-11T08:42:44;22.50;48.70
44607;DHT22;30315;46.072;14.474;2022-07-11T08:45:16;22.50;48.80
44607;DHT22;30315;46.072;14.474;2022-07-11T08:47:44;22.50;49.00
44607;DHT22;30315;46.072;14.474;2022-07-11T08:50:12;22.60;49.20
44607;DHT22;30315;46.072;14.474;2022-07-11T08:52:40;22.60;49.40
44607;DHT22;30315;46.072;14.474;2022-07-11T08:55:08;22.60;49.20
44607;DHT22;30315;46.072;14.474;2022-07-11T08:57:38;22.60;49.30
44607;DHT22;30315;46.072;14.474;2022-07-11T09:00:07;22.70;49.20
44607;DHT22;30315;46.072;14.474;2022-07-11T09:02:36;22.60;49.00
44607;DHT22;30315;46.072;14.474;2022-07-11T09:05:03;22.70;48.70
44607;DHT22;30315;46.072;14.474;2022-07-11T09:07:33;22.80;49.00
44607;DHT22;30315;46.072;14.474;2022-07-11T09:10:01;22.80;48.90
44607;DHT22;30315;46.072;14.474;2022-07-11T09:12:29;22.90;48.50
44607;DHT22;30315;46.072;14.474;2022-07-11T09:14:56;22.90;48.20
44607;DHT22;30315;46.072;14.474;2022-07-11T09:17:28;22.90;47.80
44607;DHT22;30315;46.072;14.474;2022-07-11T09:19:55;22.90;47.90
44607;DHT22;30315;46.072;14.474;2022-07-11T09:22:22;23.00;48.80
44607;DHT22;30315;46.072;14.474;2022-07-11T09:25:10;23.10;48.60
44607;DHT22;30315;46.072;14.474;2022-07-11T09:28:01;23.20;48.70
44607;DHT22;30315;46.072;14.474;2022-07-11T09:30:30;23.20;48.70
44607;DHT22;30315;46.072;14.474;2022-07-11T09:33:02;23.20;48.30
44607;DHT22;30315;46.072;14.474;2022-07-11T09:35:38;23.30;48.50
44607;DHT22;30315;46.072;14.474;2022-07-11T09:38:12;23.40;47.40
44607;DHT22;30315;46.072;14.474;2022-07-11T09:40:44;23.50;47.20
44607;DHT22;30315;46.072;14.474;2022-07-11T09:43:11;23.50;47.40
44607;DHT22;30315;46.072;14.474;2022-07-11T09:45:38;23.60;46.90
44607;DHT22;30315;46.072;14.474;2022-07-11T09:48:11;23.60;47.30
44607;DHT22;30315;46.072;14.474;2022-07-11T09:50:39;23.60;47.40
44607;DHT22;30315;46.072;14.474;2022-07-11T09:53:13;23.70;47.00
44607;DHT22;30315;46.072;14.474;2022-07-11T09:55:44;23.70;47.40
44607;DHT22;30315;46.072;14.474;2022-07-11T09:58:18;23.80;47.60
44607;DHT22;30315;46.072;14.474;2022-07-11T10:00:49;23.90;47.70
44607;DHT22;30315;46.072;14.474;2022-07-11T10:03:21;23.90;47.70
44607;DHT22;30315;46.072;14.474;2022-07-11T10:06:09;24.00;47.70
44607;DHT22;30315;46.072;14.474;2022-07-11T10:08:36;24.10;47.50
44607;DHT22;30315;46.072;14.474;2022-07-11T10:11:03;23.90;47.50
44607;DHT22;30315;46.072;14.474;2022-07-11T10:13:30;24.20;47.20
44607;DHT22;30315;46.072;14.474;2022-07-11T10:15:58;24.20;47.30
44607;DHT22;30315;46.072;14.474;2022-07-11T10:18:40;24.30;47.60
44607;DHT22;30315;46.072;14.474;2022-07-11T10:21:22;24.30;46.80
44607;DHT22;30315;46.072;14.474;2022-07-11T10:24:47;24.60;46.60
44607;DHT22;30315;46.072;14.474;2022-07-11T10:27:21;24.40;46.90
44607;DHT22;30315;46.072;14.474;2022-07-11T10:29:56;24.50;47.70
44607;DHT22;30315;46.072;14.474;2022-07-11T10:32:23;24.50;48.30
44607;DHT22;30315;46.072;14.474;2022-07-11T10:35:10;24.60;46.90
44607;DHT22;30315;46.072;14.474;2022-07-11T10:37:48;24.60;46.90
44607;DHT22;30315;46.072;14.474;2022-07-11T10:40:43;24.70;47.40
44607;DHT22;30315;46.072;14.474;2022-07-11T10:43:14;24.80;46.70
44607;DHT22;30315;46.072;14.474;2022-07-11T10:45:54;24.80;47.00
44607;DHT22;30315;46.072;14.474;2022-07-11T10:48:23;24.90;47.10
44607;DHT22;30315;46.072;14.474;2022-07-11T10:53:50;25.00;46.20
44607;DHT22;30315;46.072;14.474;2022-07-11T10:56:41;25.00;45.50
44607;DHT22;30315;46.072;14.474;2022-07-11T10:59:22;25.10;45.90
44607;DHT22;30315;46.072;14.474;2022-07-11T11:02:11;25.10;46.00
44607;DHT22;30315;46.072;14.474;2022-07-11T11:04:52;25.10;46.10
44607;DHT22;30315;46.072;14.474;2022-07-11T11:10:04;25.20;46.10
44607;DHT22;30315;46.072;14.474;2022-07-11T11:15:51;25.30;46.50
44607;DHT22;30315;46.072;14.474;2022-07-11T11:26:42;25.70;45.90
44607;DHT22;30315;46.072;14.474;2022-07-11T11:29:09;25.80;45.80
44607;DHT22;30315;46.072;14.474;2022-07-11T11:31:36;25.90;45.60
44607;DHT22;30315;46.072;14.474;2022-07-11T11:34:04;26.00;45.90
44607;DHT22;30315;46.072;14.474;2022-07-11T11:36:32;26.10;45.60
44607;DHT22;30315;46.072;14.474;2022-07-11T11:38:59;26.10;45.50
44607;DHT22;30315;46.072;14.474;2022-07-11T11:41:29;26.20;45.50
44607;DHT22;30315;46.072;14.474;2022-07-11T11:44:00;26.30;45.40
44607;DHT22;30315;46.072;14.474;2022-07-11T11:46:29;26.40;45.10
44607;DHT22;30315;46.072;14.474;2022-07-11T11:49:02;26.50;44.80
44607;DHT22;30315;46.072;14.474;2022-07-11T11:51:31;26.50;43.80
44607;DHT22;30315;46.072;14.474;2022-07-11T11:54:00;26.60;44.20
44607;DHT22;30315;46.072;14.474;2022-07-11T11:56:29;26.70;43.90
44607;DHT22;30315;46.072;14.474;2022-07-11T11:59:01;26.70;44.00
44607;DHT22;30315;46.072;14.474;2022-07-11T12:01:34;26.80;44.50
44607;DHT22;30315;46.072;14.474;2022-07-11T12:04:02;26.90;43.70
44607;DHT22;30315;46.072;14.474;2022-07-11T12:06:38;26.90;43.50
44607;DHT22;30315;46.072;14.474;2022-07-11T12:09:08;27.10;43.70
44607;DHT22;30315;46.072;14.474;2022-07-11T12:11:40;27.10;43.60
44607;DHT22;30315;46.072;14.474;2022-07-11T12:14:12;27.20;44.50
44607;DHT22;30315;46.072;14.474;2022-07-11T12:16:41;27.30;44.00
44607;DHT22;30315;46.072;14.474;2022-07-11T12:19:24;27.40;43.70
44607;DHT22;30315;46.072;14.474;2022-07-11T12:21:52;27.60;43.70
44607;DHT22;30315;46.072;14.474;2022-07-11T12:24:22;27.70;43.50
44607;DHT22;30315;46.072;14.474;2022-07-11T12:26:49;27.80;43.00
44607;DHT22;30315;46.072;14.474;2022-07-11T12:31:59;28.00;42.10
44607;DHT22;30315;46.072;14.474;2022-07-11T12:37:11;28.10;41.20
44607;DHT22;30315;46.072;14.474;2022-07-11T12:39:49;28.10;41.20
44607;DHT22;30315;46.072;14.474;2022-07-11T12:42:31;28.20;40.90
44607;DHT22;30315;46.072;14.474;2022-07-11T12:45:04;28.20;40.70
44607;DHT22;30315;46.072;14.474;2022-07-11T12:50:13;28.30;41.20
44607;DHT22;30315;46.072;14.474;2022-07-11T12:52:43;28.30;41.30
44607;DHT22;30315;46.072;14.474;2022-07-11T12:58:10;28.50;39.60
44607;DHT22;30315;46.072;14.474;2022-07-11T13:00:55;28.50;39.70
44607;DHT22;30315;46.072;14.474;2022-07-11T13:03:31;28.50;39.80
44607;DHT22;30315;46.072;14.474;2022-07-11T13:05:59;28.50;40.10
44607;DHT22;30315;46.072;14.474;2022-07-11T13:08:34;28.60;40.10
44607;DHT22;30315;46.072;14.474;2022-07-11T13:13:48;28.80;41.70
44607;DHT22;30315;46.072;14.474;2022-07-11T13:16:16;28.90;41.10
44607;DHT22;30315;46.072;14.474;2022-07-11T13:18:45;29.00;40.50
44607;DHT22;30315;46.072;14.474;2022-07-11T13:21:13;29.10;40.10
44607;DHT22;30315;46.072;14.474;2022-07-11T13:23:41;29.30;39.70
44607;DHT22;30315;46.072;14.474;2022-07-11T13:26:10;29.30;39.50
44607;DHT22;30315;46.072;14.474;2022-07-11T13:28:37;29.40;39.40
44607;DHT22;30315;46.072;14.474;2022-07-11T13:31:05;29.50;39.00
44607;DHT22;30315;46.072;14.474;2022-07-11T13:33:43;29.60;39.00
44607;DHT22;30315;46.072;14.474;2022-07-11T13:36:10;29.60;38.80
44607;DHT22;30315;46.072;14.474;2022-07-11T13:38:43;29.80;38.50
44607;DHT22;30315;46.072;14.474;2022-07-11T13:41:13;29.80;37.90
44607;DHT22;30315;46.072;14.474;2022-07-11T13:43:44;29.80;37.90
44607;DHT22;30315;46.072;14.474;2022-07-11T13:46:11;29.80;38.50
44607;DHT22;30315;46.072;14.474;2022-07-11T13:48:38;29.90;38.40
44607;DHT22;30315;46.072;14.474;2022-07-11T13:51:09;30.00;38.60
44607;DHT22;30315;46.072;14.474;2022-07-11T13:53:36;30.10;38.80
44607;DHT22;30315;46.072;14.474;2022-07-11T13:56:08;30.20;38.90
44607;DHT22;30315;46.072;14.474;2022-07-11T13:58:35;30.40;39.40
44607;DHT22;30315;46.072;14.474;2022-07-11T14:01:02;30.60;38.90
44607;DHT22;30315;46.072;14.474;2022-07-11T14:03:29;30.70;38.60
44607;DHT22;30315;46.072;14.474;2022-07-11T14:05:57;31.00;38.60
44607;DHT22;30315;46.072;14.474;2022-07-11T14:08:35;31.20;37.60
44607;DHT22;30315;46.072;14.474;2022-07-11T14:11:02;31.40;37.20
44607;DHT22;30315;46.072;14.474;2022-07-11T14:13:29;31.50;37.80
44607;DHT22;30315;46.072;14.474;2022-07-11T14:15:56;31.70;37.20
44607;DHT22;30315;46.072;14.474;2022-07-11T14:18:32;31.80;37.10
44607;DHT22;30315;46.072;14.474;2022-07-11T14:20:59;32.00;36.90
44607;DHT22;30315;46.072;14.474;2022-07-11T14:23:26;32.10;36.30
44607;DHT22;30315;46.072;14.474;2022-07-11T14:25:53;32.20;37.20
44607;DHT22;30315;46.072;14.474;2022-07-11T14:28:20;32.20;36.90
44607;DHT22;30315;46.072;14.474;2022-07-11T14:30:51;32.30;35.90
44607;DHT22;30315;46.072;14.474;2022-07-11T14:33:18;32.30;35.50
44607;DHT22;30315;46.072;14.474;2022-07-11T14:35:46;32.30;35.60
44607;DHT22;30315;46.072;14.474;2022-07-11T14:38:13;32.40;35.20
44607;DHT22;30315;46.072;14.474;2022-07-11T14:40:40;32.40;35.10
44607;DHT22;30315;46.072;14.474;2022-07-11T14:43:07;32.40;34.70
44607;DHT22;30315;46.072;14.474;2022-07-11T14:45:34;32.40;34.70
44607;DHT22;30315;46.072;14.474;2022-07-11T14:48:01;32.40;35.50
44607;DHT22;30315;46.072;14.474;2022-07-11T14:50:28;32.30;35.60
44607;DHT22;30315;46.072;14.474;2022-07-11T14:52:55;32.10;35.50
44607;DHT22;30315;46.072;14.474;2022-07-11T14:55:23;31.90;35.70
44607;DHT22;30315;46.072;14.474;2022-07-11T14:57:50;31.70;35.80
44607;DHT22;30315;46.072;14.474;2022-07-11T15:00:18;31.50;36.10
44607;DHT22;30315;46.072;14.474;2022-07-11T15:02:46;31.30;36.50
44607;DHT22;30315;46.072;14.474;2022-07-11T15:05:32;31.10;36.20
44607;DHT22;30315;46.072;14.474;2022-07-11T15:07:59;30.80;36.50
44607;DHT22;30315;46.072;14.474;2022-07-11T15:10:45;30.60;36.90
44607;DHT22;30315;46.072;14.474;2022-07-11T15:13:31;30.40;37.10
44607;DHT22;30315;46.072;14.474;2022-07-11T15:15:59;30.20;37.60
44607;DHT22;30315;46.072;14.474;2022-07-11T15:18:26;30.10;38.00
44607;DHT22;30315;46.072;14.474;2022-07-11T15:20:53;30.00;38.80
44607;DHT22;30315;46.072;14.474;2022-07-11T15:23:20;29.90;38.60
44607;DHT22;30315;46.072;14.474;2022-07-11T15:25:47;29.80;38.90
44607;DHT22;30315;46.072;14.474;2022-07-11T15:28:14;29.80;39.60
44607;DHT22;30315;46.072;14.474;2022-07-11T15:30:50;29.60;39.80
44607;DHT22;30315;46.072;14.474;2022-07-11T15:33:18;29.50;40.60
44607;DHT22;30315;46.072;14.474;2022-07-11T15:35:49;29.40;40.60
44607;DHT22;30315;46.072;14.474;2022-07-11T15:38:17;29.40;40.70
44607;DHT22;30315;46.072;14.474;2022-07-11T15:40:44;29.30;40.60
44607;DHT22;30315;46.072;14.474;2022-07-11T15:43:11;29.20;41.00
44607;DHT22;30315;46.072;14.474;2022-07-11T15:45:38;29.20;41.10
44607;DHT22;30315;46.072;14.474;2022-07-11T15:48:06;29.10;41.70
44607;DHT22;30315;46.072;14.474;2022-07-11T15:50:36;29.10;41.50
44607;DHT22;30315;46.072;14.474;2022-07-11T15:53:04;29.00;41.10
44607;DHT22;30315;46.072;14.474;2022-07-11T15:55:31;28.80;41.40
44607;DHT22;30315;46.072;14.474;2022-07-11T15:57:57;28.80;41.80
44607;DHT22;30315;46.072;14.474;2022-07-11T16:00:25;28.70;42.20
44607;DHT22;30315;46.072;14.474;2022-07-11T16:02:51;28.60;42.30